Time;durP1;ratioP1;P1;durP2;ratioP2;P2;SDS_P1;SDS_P2;PMS_P1;PMS_P2;Temp;Humidity;BMP_temperature;BMP_pressure;BME280_temperature;BME280_humidity;BME280_pressure;Samples;Min_cycle;Max_cycle;Signal;HPM_P1;HPM_P2
2022/07/09 00:00:10;;;;;;;;;;;;;;;22.80;40.57;99646.97;4456007;31;32875;-90
2022/07/09 00:02:37;;;;;;;;;;;;;;;21.95;42.67;99661.62;4468072;32;33099;-90
2022/07/09 00:05:05;;;;;;;;;;;;;;;22.43;41.31;99657.75;4489798;31;33357;-93
2022/07/09 00:07:35;;;;;;;;;;;;;;;21.89;43.06;99669.69;4478635;31;34883;-91
2022/07/09 00:10:02;;;;;;;;;;;;;;;21.98;42.59;99669.47;4479772;31;33858;-93
2022/07/09 00:12:29;;;;;;;;;;;;;;;23.24;39.94;99668.59;4484424;31;33325;-91
2022/07/09 00:14:57;;;;;;;;;;;;;;;22.76;40.77;99667.34;4484750;31;33449;-92
2022/07/09 00:17:25;;;;;;;;;;;;;;;22.52;41.60;99674.19;4492044;31;34888;-92
2022/07/09 00:19:52;;;;;;;;;;;;;;;22.98;40.45;99672.03;4496623;31;35151;-95
2022/07/09 00:22:20;;;;;;;;;;;;;;;23.38;39.63;99663.75;4481532;31;34159;-95
2022/07/09 00:24:47;;;;;;;;;;;;;;;23.09;39.92;99664.66;4498693;31;33992;-93
2022/07/09 00:27:14;;;;;;;;;;;;;;;23.24;39.94;99664.19;4496544;31;34181;-90
2022/07/09 00:29:42;;;;;;;;;;;;;;;23.21;39.95;99669.56;4488459;31;34554;-92
2022/07/09 00:32:09;;;;;;;;;;;;;;;21.33;44.02;99675.44;4491758;31;34082;-91
2022/07/09 00:34:36;;;;;;;;;;;;;;;22.17;42.21;99664.59;4488038;31;33308;-91
2022/07/09 00:37:05;;;;;;;;;;;;;;;22.51;41.22;99666.31;4469876;31;35064;-96
2022/07/09 00:39:32;;;;;;;;;;;;;;;21.52;43.17;99675.03;4481980;31;32853;-92
2022/07/09 00:42:06;;;;;;;;;;;;;;;22.54;41.36;99666.22;4487932;31;33876;-94
2022/07/09 00:44:34;;;;;;;;;;;;;;;21.83;42.70;99668.09;4471749;31;34286;-92
2022/07/09 00:47:02;;;;;;;;;;;;;;;22.41;41.72;99659.56;4469381;32;33843;-91
2022/07/09 00:49:29;;;;;;;;;;;;;;;23.37;39.79;99661.12;4456767;31;32922;-90
2022/07/09 00:51:57;;;;;;;;;;;;;;;22.69;40.73;99663.16;4491346;31;34946;-91
2022/07/09 00:54:24;;;;;;;;;;;;;;;22.31;41.33;99669.50;4471307;31;32945;-91
2022/07/09 00:56:52;;;;;;;;;;;;;;;22.37;41.47;99663.19;4476153;31;34252;-90
2022/07/09 00:59:19;;;;;;;;;;;;;;;22.66;41.09;99668.53;4483369;31;33157;-92
2022/07/09 01:01:48;;;;;;;;;;;;;;;22.94;40.33;99651.88;4464631;32;34347;-93
2022/07/09 01:04:16;;;;;;;;;;;;;;;22.58;40.95;99658.19;4468499;31;31687;-93
2022/07/09 01:06:44;;;;;;;;;;;;;;;22.11;42.09;99670.00;4471437;31;34343;-95
2022/07/09 01:09:11;;;;;;;;;;;;;;;22.83;40.72;99657.47;4467396;31;35401;-94
2022/07/09 01:11:38;;;;;;;;;;;;;;;21.78;42.85;99664.69;4478054;31;34127;-93
2022/07/09 01:14:06;;;;;;;;;;;;;;;22.61;41.05;99651.91;4459869;31;34255;-94
2022/07/09 01:16:33;;;;;;;;;;;;;;;21.93;42.60;99660.78;4497583;31;34418;-93
2022/07/09 01:19:02;;;;;;;;;;;;;;;22.98;40.17;99648.25;4468899;31;33601;-93
2022/07/09 01:21:29;;;;;;;;;;;;;;;22.56;41.04;99648.56;4478089;31;34817;-95
2022/07/09 01:23:57;;;;;;;;;;;;;;;23.03;39.73;99647.22;4482538;31;33858;-95
2022/07/09 01:26:24;;;;;;;;;;;;;;;21.95;42.22;99639.62;4484736;31;34083;-93
2022/07/09 01:28:52;;;;;;;;;;;;;;;21.36;43.60;99645.47;4478263;31;34361;-93
2022/07/09 01:31:19;;;;;;;;;;;;;;;22.16;42.13;99647.03;4466994;31;34250;-93
2022/07/09 01:33:46;;;;;;;;;;;;;;;21.76;42.75;99640.09;4450688;31;30729;-94
2022/07/09 01:36:14;;;;;;;;;;;;;;;22.02;42.12;99630.66;4478356;31;33699;-91
2022/07/09 01:38:41;;;;;;;;;;;;;;;22.41;41.24;99628.72;4484693;31;34140;-95
2022/07/09 01:41:09;;;;;;;;;;;;;;;21.17;44.00;99630.94;4484398;31;33148;-94
2022/07/09 01:43:36;;;;;;;;;;;;;;;21.45;43.55;99629.44;4473505;31;33239;-93
2022/07/09 01:46:04;;;;;;;;;;;;;;;21.59;43.11;99631.72;4472731;31;33413;-93
2022/07/09 01:48:35;;;;;;;;;;;;;;;21.52;43.16;99620.47;4499295;31;33889;-94
2022/07/09 01:51:03;;;;;;;;;;;;;;;21.29;43.55;99628.91;4486575;31;33706;-92
2022/07/09 01:53:33;;;;;;;;;;;;;;;20.72;45.03;99613.50;4486260;31;32800;-92
2022/07/09 01:56:04;;;;;;;;;;;;;;;21.19;43.89;99622.13;4484106;31;34238;-92
2022/07/09 01:58:32;;;;;;;;;;;;;;;20.51;45.65;99622.72;4488035;31;34417;-91
2022/07/09 02:00:59;;;;;;;;;;;;;;;21.22;44.00;99616.78;4486776;31;34084;-92
2022/07/09 02:03:27;;;;;;;;;;;;;;;20.64;45.12;99625.97;4480156;31;33060;-90
2022/07/09 02:05:54;;;;;;;;;;;;;;;20.94;44.40;99619.16;4485488;31;34637;-92
2022/07/09 02:08:22;;;;;;;;;;;;;;;20.76;45.24;99620.44;4470663;32;33486;-93
2022/07/09 02:10:50;;;;;;;;;;;;;;;20.47;45.46;99622.78;4470184;32;33810;-90
2022/07/09 02:13:17;;;;;;;;;;;;;;;20.55;45.55;99613.84;4484841;31;32351;-92
2022/07/09 02:15:45;;;;;;;;;;;;;;;20.31;46.19;99619.59;4493025;31;34175;-92
2022/07/09 02:18:12;;;;;;;;;;;;;;;20.50;45.63;99615.72;4479099;32;35315;-89
2022/07/09 02:20:40;;;;;;;;;;;;;;;21.02;43.99;99621.63;4484184;32;34392;-93
2022/07/09 02:23:07;;;;;;;;;;;;;;;20.60;45.57;99619.87;4497545;31;32730;-92
2022/07/09 02:25:35;;;;;;;;;;;;;;;20.59;45.62;99619.94;4496049;31;34898;-92
2022/07/09 02:28:02;;;;;;;;;;;;;;;20.68;45.48;99613.59;4497508;31;34290;-92
2022/07/09 02:30:30;;;;;;;;;;;;;;;20.28;46.10;99615.25;4499839;31;34846;-92
2022/07/09 02:32:57;;;;;;;;;;;;;;;21.54;43.42;99617.78;4496279;31;34194;-93
2022/07/09 02:35:24;;;;;;;;;;;;;;;21.26;43.84;99622.84;4497076;31;34325;-92
2022/07/09 02:37:51;;;;;;;;;;;;;;;20.44;45.81;99622.84;4479910;32;34239;-92
2022/07/09 02:40:19;;;;;;;;;;;;;;;20.73;45.10;99625.78;4486808;31;34957;-93
2022/07/09 02:42:46;;;;;;;;;;;;;;;21.07;44.51;99627.69;4494563;31;33446;-92
2022/07/09 02:45:13;;;;;;;;;;;;;;;21.48;43.60;99631.12;4475612;32;34053;-90
2022/07/09 02:47:41;;;;;;;;;;;;;;;21.60;43.29;99628.22;4471470;31;35544;-92
2022/07/09 02:50:08;;;;;;;;;;;;;;;21.47;43.35;99618.84;4499239;31;34453;-92
2022/07/09 02:52:36;;;;;;;;;;;;;;;20.70;45.47;99612.66;4499325;31;33387;-91
2022/07/09 02:55:03;;;;;;;;;;;;;;;20.62;45.60;99618.09;4488861;31;34744;-94
2022/07/09 02:57:30;;;;;;;;;;;;;;;21.31;44.20;99611.28;4485154;31;34035;-92
2022/07/09 02:59:58;;;;;;;;;;;;;;;21.46;43.64;99617.12;4484609;31;33537;-91
2022/07/09 03:02:25;;;;;;;;;;;;;;;22.16;42.22;99603.88;4499221;31;33025;-92
2022/07/09 03:04:53;;;;;;;;;;;;;;;20.95;44.81;99618.28;4489728;31;34039;-93
2022/07/09 03:07:20;;;;;;;;;;;;;;;21.10;44.64;99617.03;4469370;32;33690;-93
2022/07/09 03:09:48;;;;;;;;;;;;;;;21.76;43.13;99618.13;4482659;31;33136;-92
2022/07/09 03:12:15;;;;;;;;;;;;;;;20.85;45.28;99609.69;4484928;31;33915;-93
2022/07/09 03:14:43;;;;;;;;;;;;;;;21.50;43.76;99616.12;4459402;31;33431;-92
2022/07/09 03:17:10;;;;;;;;;;;;;;;21.34;44.12;99615.66;4485069;31;34924;-93
2022/07/09 03:19:37;;;;;;;;;;;;;;;21.08;44.80;99617.09;4485859;31;34136;-90
2022/07/09 03:22:05;;;;;;;;;;;;;;;22.04;42.49;99608.56;4494948;31;33494;-92
2022/07/09 03:24:32;;;;;;;;;;;;;;;21.02;44.79;99613.72;4485183;31;33877;-92
2022/07/09 03:26:59;;;;;;;;;;;;;;;21.83;43.14;99620.56;4499335;31;33960;-92
2022/07/09 03:29:26;;;;;;;;;;;;;;;21.77;43.18;99620.72;4490227;31;34101;-92
2022/07/09 03:31:54;;;;;;;;;;;;;;;21.72;43.44;99617.34;4483768;31;33225;-93
2022/07/09 03:34:22;;;;;;;;;;;;;;;22.03;42.83;99629.75;4485649;31;34104;-91
2022/07/09 03:36:49;;;;;;;;;;;;;;;21.60;43.69;99620.28;4490451;31;34362;-91
2022/07/09 03:39:16;;;;;;;;;;;;;;;20.75;46.03;99623.97;4490662;31;34304;-92
2022/07/09 03:41:44;;;;;;;;;;;;;;;21.51;43.91;99624.00;4472488;32;32523;-92
2022/07/09 03:44:11;;;;;;;;;;;;;;;21.80;43.28;99628.56;4483447;31;35275;-92
2022/07/09 03:46:38;;;;;;;;;;;;;;;21.89;43.26;99630.09;4484296;31;34346;-91
2022/07/09 03:49:06;;;;;;;;;;;;;;;21.64;43.80;99629.88;4489406;31;34961;-91
2022/07/09 03:51:33;;;;;;;;;;;;;;;21.84;43.09;99630.22;4476341;31;32171;-91
2022/07/09 03:54:01;;;;;;;;;;;;;;;21.25;44.68;99631.62;4497868;31;34038;-91
2022/07/09 03:56:28;;;;;;;;;;;;;;;21.14;45.06;99632.78;4498408;31;34994;-91
2022/07/09 03:58:55;;;;;;;;;;;;;;;20.88;45.43;99628.09;4494132;31;33813;-90
2022/07/09 04:01:23;;;;;;;;;;;;;;;20.71;46.02;99624.06;4483502;32;34134;-91
2022/07/09 04:03:50;;;;;;;;;;;;;;;21.19;44.97;99632.66;4483892;31;33946;-90
2022/07/09 04:06:17;;;;;;;;;;;;;;;20.42;46.70;99631.66;4487303;31;35278;-91
2022/07/09 04:08:45;;;;;;;;;;;;;;;20.55;46.37;99628.78;4481429;31;32851;-90
2022/07/09 04:11:12;;;;;;;;;;;;;;;20.60;46.47;99633.06;4468974;32;33098;-92
2022/07/09 04:13:40;;;;;;;;;;;;;;;21.29;44.68;99642.09;4483280;32;35123;-89
2022/07/09 04:16:07;;;;;;;;;;;;;;;20.77;46.06;99640.63;4485433;31;34329;-93
2022/07/09 04:18:35;;;;;;;;;;;;;;;20.85;45.96;99635.19;4492958;31;34192;-90
2022/07/09 04:21:03;;;;;;;;;;;;;;;21.09;45.16;99641.69;4501173;31;33502;-92
2022/07/09 04:23:30;;;;;;;;;;;;;;;20.91;45.69;99640.34;4498753;31;34225;-91
2022/07/09 04:25:57;;;;;;;;;;;;;;;20.54;46.64;99642.87;4498238;31;35101;-92
2022/07/09 04:28:25;;;;;;;;;;;;;;;20.99;45.40;99638.41;4484810;31;34046;-91
2022/07/09 04:30:52;;;;;;;;;;;;;;;21.11;45.32;99642.53;4491955;31;32211;-89
2022/07/09 04:33:19;;;;;;;;;;;;;;;21.03;45.43;99639.19;4482987;31;34314;-92
2022/07/09 04:35:47;;;;;;;;;;;;;;;20.93;45.74;99635.03;4476600;31;33373;-92
2022/07/09 04:38:14;;;;;;;;;;;;;;;21.79;44.09;99640.03;4498861;31;34095;-92
2022/07/09 04:40:41;;;;;;;;;;;;;;;22.31;42.38;99636.06;4483791;31;33389;-94
2022/07/09 04:43:09;;;;;;;;;;;;;;;22.80;41.51;99631.97;4468656;32;34144;-91
2022/07/09 04:45:36;;;;;;;;;;;;;;;21.88;42.78;99636.28;4491383;31;34440;-93
2022/07/09 04:48:03;;;;;;;;;;;;;;;21.06;44.74;99640.00;4490684;31;34983;-91
2022/07/09 04:50:31;;;;;;;;;;;;;;;21.38;44.43;99647.19;4469535;32;33268;-92
2022/07/09 04:52:58;;;;;;;;;;;;;;;21.25;44.77;99644.81;4469074;32;33642;-94
2022/07/09 04:55:26;;;;;;;;;;;;;;;21.03;45.04;99640.06;4487099;31;34523;-91
2022/07/09 04:57:53;;;;;;;;;;;;;;;21.20;44.71;99634.38;4483585;31;33466;-90
2022/07/09 05:00:20;;;;;;;;;;;;;;;20.37;46.59;99644.00;4482748;31;33983;-92
2022/07/09 05:02:47;;;;;;;;;;;;;;;21.23;44.64;99646.66;4495573;31;34676;-90
2022/07/09 05:05:15;;;;;;;;;;;;;;;21.13;45.16;99645.97;4490813;31;35254;-89
2022/07/09 05:07:42;;;;;;;;;;;;;;;20.12;47.13;99648.91;4486716;31;34871;-89
2022/07/09 05:10:10;;;;;;;;;;;;;;;20.74;45.89;99648.59;4475662;31;33199;-91
2022/07/09 05:12:37;;;;;;;;;;;;;;;21.44;44.51;99647.94;4493007;31;33783;-90
2022/07/09 05:15:05;;;;;;;;;;;;;;;21.01;45.19;99643.63;4486710;31;34409;-94
2022/07/09 05:17:35;;;;;;;;;;;;;;;21.23;44.58;99642.22;4488682;31;34186;-90
2022/07/09 05:20:03;;;;;;;;;;;;;;;21.61;43.98;99644.00;4486791;31;33914;-88
2022/07/09 05:22:32;;;;;;;;;;;;;;;21.86;43.12;99638.09;4492624;31;35058;-89
2022/07/09 05:24:59;;;;;;;;;;;;;;;22.97;41.15;99635.94;4496213;31;33893;-89
2022/07/09 05:27:27;;;;;;;;;;;;;;;22.67;41.59;99637.69;4472862;31;33567;-88
2022/07/09 05:29:55;;;;;;;;;;;;;;;23.28;40.38;99631.41;4492929;31;33440;-91
2022/07/09 05:32:22;;;;;;;;;;;;;;;23.57;40.01;99628.75;4497996;31;33965;-90
2022/07/09 05:34:50;;;;;;;;;;;;;;;23.89;38.82;99627.69;4495443;31;34457;-92
2022/07/09 05:37:17;;;;;;;;;;;;;;;23.08;39.84;99633.84;4497431;31;33748;-90
2022/07/09 05:39:44;;;;;;;;;;;;;;;23.51;39.46;99629.81;4495051;31;33878;-90
2022/07/09 05:42:12;;;;;;;;;;;;;;;23.97;38.89;99636.25;4493634;31;34086;-88
2022/07/09 05:44:39;;;;;;;;;;;;;;;22.75;40.98;99630.38;4481137;31;35296;-88
2022/07/09 05:47:06;;;;;;;;;;;;;;;22.94;40.97;99631.59;4494748;31;34039;-89
2022/07/09 05:49:33;;;;;;;;;;;;;;;23.62;39.61;99625.03;4497947;31;34190;-88
2022/07/09 05:52:01;;;;;;;;;;;;;;;23.05;40.67;99626.00;4482063;31;34356;-88
2022/07/09 05:54:28;;;;;;;;;;;;;;;23.62;39.62;99627.69;4496257;31;34377;-92
2022/07/09 05:56:55;;;;;;;;;;;;;;;23.11;40.43;99630.19;4497335;31;34205;-88
2022/07/09 05:59:22;;;;;;;;;;;;;;;23.04;40.87;99635.69;4497679;31;33163;-87
2022/07/09 06:01:50;;;;;;;;;;;;;;;22.33;42.62;99626.28;4483312;31;34458;-88
2022/07/09 06:04:18;;;;;;;;;;;;;;;22.43;42.64;99631.34;4497554;31;34987;-86
2022/07/09 06:06:45;;;;;;;;;;;;;;;23.07;40.99;99632.12;4497905;31;33946;-88
2022/07/09 06:09:12;;;;;;;;;;;;;;;23.26;40.50;99635.00;4497395;31;33943;-88
2022/07/09 06:11:40;;;;;;;;;;;;;;;23.26;40.38;99633.25;4497411;31;34470;-87
2022/07/09 06:14:07;;;;;;;;;;;;;;;23.35;40.17;99625.94;4499035;31;34153;-88
2022/07/09 06:16:34;;;;;;;;;;;;;;;22.68;41.47;99634.97;4499952;31;33619;-87
2022/07/09 06:19:02;;;;;;;;;;;;;;;22.26;42.55;99627.37;4500085;31;33342;-87
2022/07/09 06:51:32;;;;;;;;;;;;;;;24.49;38.48;99623.81;4558960;27;20000;-82
2022/07/09 06:53:59;;;;;;;;;;;;;;;25.00;37.08;99622.75;4391640;32;34666;-85
2022/07/09 06:56:26;;;;;;;;;;;;;;;24.37;38.06;99629.53;4391580;32;33537;-84
2022/07/09 06:58:53;;;;;;;;;;;;;;;24.12;38.36;99633.06;4391928;32;33546;-86
2022/07/09 07:01:21;;;;;;;;;;;;;;;24.60;38.25;99639.34;4391635;32;33463;-85
2022/07/09 07:03:48;;;;;;;;;;;;;;;24.17;39.00;99640.84;4391866;32;33261;-87
2022/07/09 07:06:16;;;;;;;;;;;;;;;24.87;37.44;99627.69;4391720;32;34908;-85
2022/07/09 07:08:43;;;;;;;;;;;;;;;24.38;38.35;99628.63;4391724;32;34384;-84
2022/07/09 07:11:10;;;;;;;;;;;;;;;25.51;36.16;99632.25;4391701;32;34046;-87
2022/07/09 07:13:37;;;;;;;;;;;;;;;24.69;37.86;99625.72;4377956;32;34289;-86
2022/07/09 07:16:05;;;;;;;;;;;;;;;25.36;36.46;99630.22;4377901;32;32644;-87
2022/07/09 07:18:32;;;;;;;;;;;;;;;25.05;37.02;99626.09;4377951;32;33996;-86
2022/07/09 07:21:00;;;;;;;;;;;;;;;24.22;38.46;99628.31;4365769;32;34658;-87
2022/07/09 07:23:31;;;;;;;;;;;;;;;24.93;37.43;99631.91;4391263;32;33361;-87
2022/07/09 07:25:59;;;;;;;;;;;;;;;25.55;36.31;99625.03;4391252;32;33838;-84
2022/07/09 07:28:26;;;;;;;;;;;;;;;25.27;36.82;99625.25;4370475;32;34686;-84
2022/07/09 07:30:54;;;;;;;;;;;;;;;24.70;37.50;99619.47;4350505;32;35217;-85
2022/07/09 07:33:21;;;;;;;;;;;;;;;25.60;36.49;99629.19;4362274;32;32215;-86
2022/07/09 07:35:49;;;;;;;;;;;;;;;26.15;35.53;99624.25;4376034;32;34068;-85
2022/07/09 07:38:17;;;;;;;;;;;;;;;25.85;36.04;99633.53;4375060;32;34505;-86
2022/07/09 07:40:44;;;;;;;;;;;;;;;26.61;35.16;99614.22;4376474;32;34166;-82
2022/07/09 07:43:12;;;;;;;;;;;;;;;25.69;36.07;99627.97;4376218;32;34185;-85
2022/07/09 07:45:39;;;;;;;;;;;;;;;25.99;35.67;99631.16;4376435;32;33955;-85
2022/07/09 07:48:07;;;;;;;;;;;;;;;26.17;35.07;99619.69;4376525;32;34468;-86
2022/07/09 07:50:38;;;;;;;;;;;;;;;26.25;34.61;99616.69;4362660;32;34341;-84
2022/07/09 07:53:06;;;;;;;;;;;;;;;26.98;33.87;99617.84;4376272;32;34163;-83
2022/07/09 07:55:33;;;;;;;;;;;;;;;27.34;32.95;99604.56;4367775;32;33932;-87
2022/07/09 07:58:00;;;;;;;;;;;;;;;27.08;33.34;99608.47;4376546;32;34390;-86
2022/07/09 08:00:28;;;;;;;;;;;;;;;27.80;31.12;99614.75;4376410;32;33873;-84
2022/07/09 08:02:55;;;;;;;;;;;;;;;26.73;33.72;99617.25;4376354;32;33453;-84
2022/07/09 08:05:23;;;;;;;;;;;;;;;27.39;32.79;99607.03;4376226;32;34126;-84
2022/07/09 08:07:50;;;;;;;;;;;;;;;26.35;34.10;99612.72;4362585;32;34566;-84
2022/07/09 08:10:19;;;;;;;;;;;;;;;27.15;33.26;99609.06;4364054;32;34576;-83
2022/07/09 08:12:46;;;;;;;;;;;;;;;27.14;33.43;99602.88;4363320;32;33751;-84
2022/07/09 08:15:13;;;;;;;;;;;;;;;27.03;33.04;99605.16;4376125;32;34153;-85
2022/07/09 08:17:41;;;;;;;;;;;;;;;26.81;33.62;99605.31;4362703;32;33894;-85
2022/07/09 08:20:09;;;;;;;;;;;;;;;27.02;32.78;99597.28;4375970;32;34095;-85
2022/07/09 08:22:36;;;;;;;;;;;;;;;26.84;33.18;99588.34;4362308;32;34145;-85
2022/07/09 08:25:04;;;;;;;;;;;;;;;26.30;34.03;99592.59;4362452;32;34126;-86
2022/07/09 08:27:35;;;;;;;;;;;;;;;26.66;33.10;99595.38;4376111;32;34312;-84
2022/07/09 08:30:03;;;;;;;;;;;;;;;26.49;34.12;99585.53;4362510;32;33907;-86
2022/07/09 08:32:31;;;;;;;;;;;;;;;26.23;33.49;99588.50;4362303;32;32909;-84
2022/07/09 08:34:58;;;;;;;;;;;;;;;26.74;33.69;99587.06;4362553;32;35289;-87
2022/07/09 08:37:25;;;;;;;;;;;;;;;26.54;32.79;99590.66;4375648;32;33955;-85
2022/07/09 08:39:53;;;;;;;;;;;;;;;27.26;32.16;99587.25;4362928;32;34217;-86
2022/07/09 08:42:21;;;;;;;;;;;;;;;27.05;31.94;99575.81;4375935;32;33181;-84
2022/07/09 08:44:48;;;;;;;;;;;;;;;27.27;32.53;99575.66;4362297;32;33424;-87
2022/07/09 08:47:16;;;;;;;;;;;;;;;27.71;31.35;99584.09;4362504;32;34434;-82
2022/07/09 08:49:43;;;;;;;;;;;;;;;27.95;30.83;99578.47;4375669;32;34112;-82
2022/07/09 08:52:10;;;;;;;;;;;;;;;27.87;30.23;99573.53;4361677;32;33372;-85
2022/07/09 08:54:39;;;;;;;;;;;;;;;27.03;30.48;99567.91;4362106;32;35045;-83
2022/07/09 08:57:06;;;;;;;;;;;;;;;26.00;32.63;99574.44;4362200;32;34518;-84
2022/07/09 08:59:33;;;;;;;;;;;;;;;27.12;30.74;99577.28;4375393;32;34034;-84
2022/07/09 09:02:09;;;;;;;;;;;;;;;27.17;30.36;99570.81;4362669;32;33851;-88
2022/07/09 09:04:39;;;;;;;;;;;;;;;26.59;30.22;99573.53;4375390;32;34242;-86
2022/07/09 09:07:17;;;;;;;;;;;;;;;26.28;31.04;99573.19;4362081;32;34884;-84
2022/07/09 09:09:45;;;;;;;;;;;;;;;27.74;29.82;99567.09;4362008;32;34195;-83
2022/07/09 09:12:13;;;;;;;;;;;;;;;27.28;29.49;99566.75;4361755;32;33319;-87
2022/07/09 09:14:47;;;;;;;;;;;;;;;27.58;29.44;99567.03;4361682;32;34366;-84
2022/07/09 09:17:15;;;;;;;;;;;;;;;26.99;30.50;99561.00;4375617;32;35298;-84
2022/07/09 09:19:42;;;;;;;;;;;;;;;26.60;29.87;99564.63;4361594;32;34355;-84
2022/07/09 09:22:09;;;;;;;;;;;;;;;27.66;28.02;99572.81;4361811;32;33997;-88
2022/07/09 09:24:37;;;;;;;;;;;;;;;28.02;27.95;99553.22;4375345;32;34320;-86
2022/07/09 09:27:04;;;;;;;;;;;;;;;28.19;28.13;99552.34;4375222;32;34685;-85
2022/07/09 09:29:31;;;;;;;;;;;;;;;27.52;28.82;99546.88;4375244;32;34148;-86
2022/07/09 09:32:08;;;;;;;;;;;;;;;28.44;28.16;99547.41;4375260;32;34209;-84
2022/07/09 09:34:41;;;;;;;;;;;;;;;27.80;27.61;99537.50;4362053;32;34087;-85
2022/07/09 09:37:08;;;;;;;;;;;;;;;28.39;27.47;99541.47;4375444;32;34489;-84
2022/07/09 09:39:35;;;;;;;;;;;;;;;27.74;28.54;99545.78;4375052;32;34494;-85
2022/07/09 09:42:03;;;;;;;;;;;;;;;27.62;29.17;99548.12;4375329;32;33180;-84
2022/07/09 09:44:37;;;;;;;;;;;;;;;27.40;29.14;99540.38;4375032;32;34131;-89
2022/07/09 09:47:04;;;;;;;;;;;;;;;28.02;28.42;99531.91;4362234;32;35242;-85
2022/07/09 09:49:32;;;;;;;;;;;;;;;27.29;28.32;99533.88;4363283;32;35104;-86
2022/07/09 09:51:59;;;;;;;;;;;;;;;27.60;29.37;99520.72;4363401;32;32772;-86
2022/07/09 09:54:26;;;;;;;;;;;;;;;28.36;27.46;99525.59;4377141;32;34050;-86
2022/07/09 09:56:54;;;;;;;;;;;;;;;27.63;27.88;99531.22;4363596;32;34221;-85
2022/07/09 09:59:21;;;;;;;;;;;;;;;28.04;27.46;99525.56;4363529;32;34809;-84
2022/07/09 10:01:48;;;;;;;;;;;;;;;27.91;27.98;99534.25;4376667;32;32988;-85
2022/07/09 10:04:16;;;;;;;;;;;;;;;28.58;27.03;99528.84;4376936;32;35018;-84
2022/07/09 10:06:44;;;;;;;;;;;;;;;28.44;27.19;99534.06;4377023;32;35356;-88
2022/07/09 10:09:12;;;;;;;;;;;;;;;28.73;26.87;99523.59;4362575;32;34558;-86
2022/07/09 10:11:42;;;;;;;;;;;;;;;28.80;27.04;99519.66;4363346;32;33222;-84
2022/07/09 10:14:16;;;;;;;;;;;;;;;28.35;26.70;99514.09;4363064;32;32384;-86
2022/07/09 10:16:44;;;;;;;;;;;;;;;28.92;26.40;99523.44;4376705;32;34545;-81
2022/07/09 10:19:21;;;;;;;;;;;;;;;28.35;26.26;99515.88;4376773;32;34706;-86
2022/07/09 10:21:51;;;;;;;;;;;;;;;27.70;26.60;99521.09;4363502;32;34588;-84
2022/07/09 10:24:23;;;;;;;;;;;;;;;28.37;27.60;99516.69;4363303;32;35213;-84
2022/07/09 10:26:51;;;;;;;;;;;;;;;28.56;27.49;99521.87;4363206;32;35507;-84
2022/07/09 10:29:19;;;;;;;;;;;;;;;29.37;25.78;99509.25;4363134;32;34414;-83
2022/07/09 10:31:46;;;;;;;;;;;;;;;29.33;24.58;99507.72;4376549;32;34213;-81
2022/07/09 10:34:37;;;;;;;;;;;;;;;28.74;25.53;99506.63;4376727;32;34388;-83
2022/07/09 10:37:05;;;;;;;;;;;;;;;28.57;26.31;99503.13;4370949;32;35256;-84
2022/07/09 10:39:33;;;;;;;;;;;;;;;28.60;25.26;99502.06;4375757;32;33757;-81
2022/07/09 10:42:03;;;;;;;;;;;;;;;29.45;25.25;99485.59;4363123;32;34191;-82
2022/07/09 10:44:34;;;;;;;;;;;;;;;29.46;25.07;99484.63;4376334;32;34132;-81
2022/07/09 10:47:05;;;;;;;;;;;;;;;29.91;24.52;99485.50;4376313;32;35067;-83
2022/07/09 10:49:36;;;;;;;;;;;;;;;29.23;25.80;99493.16;4376412;32;34033;-81
2022/07/09 10:52:07;;;;;;;;;;;;;;;29.27;25.21;99500.03;4376162;32;34220;-84
2022/07/09 10:54:34;;;;;;;;;;;;;;;29.86;24.83;99484.09;4361768;32;34292;-86
2022/07/09 10:57:01;;;;;;;;;;;;;;;29.64;24.56;99489.87;4376526;32;33938;-85
2022/07/09 10:59:29;;;;;;;;;;;;;;;28.78;25.84;99484.16;4375967;32;33842;-85
2022/07/09 11:01:56;;;;;;;;;;;;;;;28.66;25.08;99492.88;4375601;32;33095;-80
2022/07/09 11:04:24;;;;;;;;;;;;;;;29.08;25.08;99481.56;4375142;32;34133;-87
2022/07/09 11:06:57;;;;;;;;;;;;;;;28.48;26.00;99492.09;4372244;32;34158;-83
2022/07/09 11:09:25;;;;;;;;;;;;;;;28.99;25.22;99485.66;4376369;32;34941;-82
2022/07/09 11:11:53;;;;;;;;;;;;;;;29.46;24.76;99481.13;4363290;32;33556;-85
2022/07/09 11:14:20;;;;;;;;;;;;;;;29.74;25.03;99491.03;4350449;32;34204;-83
2022/07/09 11:16:54;;;;;;;;;;;;;;;29.16;25.32;99479.31;4376588;32;35084;-86
2022/07/09 11:19:22;;;;;;;;;;;;;;;29.26;24.73;99483.16;4362821;32;34864;-87
2022/07/09 11:21:50;;;;;;;;;;;;;;;29.27;23.91;99470.66;4363217;32;32940;-87
2022/07/09 11:24:19;;;;;;;;;;;;;;;29.89;24.31;99463.38;4363021;32;34209;-83
2022/07/09 11:26:46;;;;;;;;;;;;;;;29.38;23.05;99473.56;4362879;32;34160;-85
2022/07/09 11:29:14;;;;;;;;;;;;;;;28.64;25.57;99471.62;4371062;32;33967;-86
2022/07/09 11:31:51;;;;;;;;;;;;;;;29.36;23.75;99464.78;4362559;32;33977;-87
2022/07/09 11:34:19;;;;;;;;;;;;;;;28.54;25.54;99465.09;4362356;32;34933;-86
2022/07/09 11:36:47;;;;;;;;;;;;;;;28.68;25.29;99466.94;4375828;32;34126;-84
2022/07/09 11:39:23;;;;;;;;;;;;;;;29.36;24.27;99448.78;4375893;32;34962;-86
2022/07/09 11:41:50;;;;;;;;;;;;;;;29.46;23.99;99449.91;4365514;32;32739;-86
2022/07/09 11:44:21;;;;;;;;;;;;;;;30.09;23.52;99447.88;4362473;32;35169;-84
2022/07/09 11:47:01;;;;;;;;;;;;;;;29.55;24.16;99435.16;4375739;32;33168;-86
2022/07/09 11:49:33;;;;;;;;;;;;;;;29.28;25.95;99438.56;4375973;32;33953;-83
2022/07/09 11:52:00;;;;;;;;;;;;;;;29.29;24.53;99428.72;4375828;32;33013;-83
2022/07/09 11:54:28;;;;;;;;;;;;;;;29.37;25.00;99434.47;4376185;32;35179;-85
2022/07/09 11:56:55;;;;;;;;;;;;;;;30.10;24.27;99428.22;4376301;32;35102;-86
2022/07/09 11:59:31;;;;;;;;;;;;;;;29.20;25.08;99419.44;4375943;32;34953;-85
2022/07/09 12:01:59;;;;;;;;;;;;;;;29.30;23.49;99419.75;4375783;32;33745;-85
2022/07/09 12:04:33;;;;;;;;;;;;;;;29.63;23.80;99408.00;4362221;32;32977;-86
2022/07/09 12:07:00;;;;;;;;;;;;;;;29.53;24.11;99384.47;4362208;32;34141;-85
2022/07/09 12:09:29;;;;;;;;;;;;;;;29.91;23.13;99404.44;4361832;32;33933;-82
2022/07/09 12:11:57;;;;;;;;;;;;;;;30.12;24.27;99399.53;4346098;32;33121;-84
2022/07/09 12:14:24;;;;;;;;;;;;;;;29.62;24.75;99400.91;4362434;32;33791;-85
2022/07/09 12:16:51;;;;;;;;;;;;;;;29.46;24.30;99391.16;4375728;32;34035;-84
2022/07/09 12:19:19;;;;;;;;;;;;;;;30.22;24.47;99384.66;4375969;32;33904;-84
2022/07/09 12:21:46;;;;;;;;;;;;;;;29.55;23.75;99392.41;4375646;32;32901;-88
2022/07/09 12:24:13;;;;;;;;;;;;;;;29.38;24.19;99392.59;4362633;32;34283;-84
2022/07/09 12:26:41;;;;;;;;;;;;;;;29.20;23.82;99394.53;4376008;32;34329;-86
2022/07/09 12:29:28;;;;;;;;;;;;;;;29.97;24.43;99390.72;4374616;32;34088;-84
2022/07/09 12:31:56;;;;;;;;;;;;;;;30.22;23.42;99385.50;4376141;32;34038;-86
2022/07/09 12:34:24;;;;;;;;;;;;;;;29.21;25.03;99366.88;4368649;32;33992;-82
2022/07/09 12:36:52;;;;;;;;;;;;;;;29.08;24.21;99380.12;4375376;32;34501;-86
2022/07/09 12:39:27;;;;;;;;;;;;;;;29.02;24.86;99364.50;4375160;32;33754;-87
2022/07/09 12:41:54;;;;;;;;;;;;;;;29.31;25.08;99360.03;4361369;32;33527;-88
2022/07/09 12:44:21;;;;;;;;;;;;;;;30.15;23.99;99367.25;4381447;32;34772;-86
2022/07/09 12:46:48;;;;;;;;;;;;;;;29.88;24.36;99375.25;4379308;32;33962;-83
2022/07/09 12:49:16;;;;;;;;;;;;;;;29.26;24.85;99364.81;4375581;32;34889;-88
2022/07/09 12:51:43;;;;;;;;;;;;;;;29.98;23.25;99355.84;4375601;32;33297;-83
2022/07/09 12:54:10;;;;;;;;;;;;;;;29.76;24.04;99356.34;4375270;32;33786;-85
2022/07/09 12:56:38;;;;;;;;;;;;;;;30.16;24.09;99353.84;4375392;32;34331;-84
2022/07/09 12:59:25;;;;;;;;;;;;;;;30.20;23.77;99357.19;4375514;32;34268;-83
2022/07/09 13:01:53;;;;;;;;;;;;;;;29.42;24.66;99354.91;4375628;32;33015;-90
2022/07/09 13:04:20;;;;;;;;;;;;;;;29.46;24.09;99342.22;4375641;32;34005;-85
2022/07/09 13:06:47;;;;;;;;;;;;;;;28.28;25.20;99357.19;4375086;32;35171;-87
2022/07/09 13:09:15;;;;;;;;;;;;;;;28.53;24.86;99346.03;4375381;32;34331;-83
2022/07/09 13:11:42;;;;;;;;;;;;;;;29.69;25.02;99354.16;4374633;32;33176;-89
2022/07/09 13:14:09;;;;;;;;;;;;;;;29.60;24.07;99338.72;4357269;32;34042;-85
2022/07/09 13:16:36;;;;;;;;;;;;;;;29.68;23.80;99341.75;4375330;32;34343;-85
2022/07/09 13:19:04;;;;;;;;;;;;;;;30.24;23.26;99339.97;4361578;32;32693;-85
2022/07/09 13:21:31;;;;;;;;;;;;;;;30.29;22.87;99345.87;4361757;32;33341;-85